Time;durP1;ratioP1;P1;durP2;ratioP2;P2;SDS_P1;SDS_P2;PMS_P1;PMS_P2;Temp;Humidity;BMP_temperature;BMP_pressure;BME280_temperature;BME280_humidity;BME280_pressure;Samples;Min_cycle;Max_cycle;Signal;HPM_P1;HPM_P2
2023/10/15 00:01:42;;;;;;;7.70;2.90;;;;;;;9.11;86.05;99822.20;107762;276;98323;-56
2023/10/15 00:04:22;;;;;;;8.00;2.70;;;;;;;9.07;86.05;99818.44;107664;276;120184;-57
2023/10/15 00:06:59;;;;;;;4.20;2.10;;;;;;;9.03;86.04;99819.94;107649;276;106069;-57
2023/10/15 00:09:39;;;;;;;7.50;2.80;;;;;;;9.00;86.16;99815.59;107631;276;114670;-57
2023/10/15 00:12:25;;;;;;;7.50;2.50;;;;;;;9.01;86.13;99818.76;107649;276;97073;-60
2023/10/15 00:15:03;;;;;;;7.90;3.00;;;;;;;8.98;86.09;99822.38;107593;276;98655;-59
2023/10/15 00:17:42;;;;;;;6.90;2.90;;;;;;;8.92;85.94;99818.34;107669;276;120828;-59
2023/10/15 00:20:35;;;;;;;9.40;3.00;;;;;;;8.85;86.03;99820.38;107645;276;104917;-59
2023/10/15 00:23:26;;;;;;;5.30;2.60;;;;;;;8.81;86.24;99821.10;107621;276;112913;-59
2023/10/15 00:26:11;;;;;;;9.40;3.10;;;;;;;8.72;86.16;99823.20;107666;276;95167;-54
2023/10/15 00:28:51;;;;;;;9.80;2.70;;;;;;;8.62;86.08;99828.52;107667;276;97192;-53
2023/10/15 00:31:28;;;;;;;7.10;2.20;;;;;;;8.54;86.03;99830.13;107723;276;119631;-57
2023/10/15 00:34:12;;;;;;;7.10;2.70;;;;;;;8.45;86.00;99833.57;107675;276;104925;-57
2023/10/15 00:36:55;;;;;;;9.60;2.50;;;;;;;8.38;86.20;99834.50;107696;276;114510;-59
2023/10/15 00:39:41;;;;;;;9.10;2.60;;;;;;;8.35;86.17;99830.15;107802;276;94883;-59
2023/10/15 00:42:22;;;;;;;10.30;2.10;;;;;;;8.27;86.04;99832.69;107716;276;98218;-54
2023/10/15 00:45:09;;;;;;;7.60;2.20;;;;;;;8.21;86.04;99834.59;107679;276;119278;-54
2023/10/15 00:48:02;;;;;;;8.30;1.90;;;;;;;8.16;86.05;99836.02;107544;276;104805;-54
2023/10/15 00:50:43;;;;;;;4.10;1.90;;;;;;;8.15;85.99;99839.77;107516;276;116442;-55
2023/10/15 00:53:28;;;;;;;6.90;2.00;;;;;;;8.09;85.93;99841.05;107617;276;94941;-55
2023/10/15 00:56:10;;;;;;;5.00;1.80;;;;;;;8.02;86.09;99842.24;107687;276;98053;-56
2023/10/15 00:58:54;;;;;;;5.90;2.30;;;;;;;7.97;85.95;99846.14;107637;276;120753;-55
2023/10/15 01:01:35;;;;;;;5.50;2.40;;;;;;;7.95;85.99;99842.60;107654;276;106027;-53
2023/10/15 01:04:15;;;;;;;5.40;2.30;;;;;;;7.92;86.08;99838.30;107642;276;113590;-53
2023/10/15 01:07:00;;;;;;;6.70;2.30;;;;;;;7.89;86.16;99838.04;107663;276;95315;-58
2023/10/15 01:09:43;;;;;;;7.00;2.10;;;;;;;7.88;86.23;99833.14;107633;276;98253;-58
2023/10/15 01:15:18;;;;;;;6.20;2.30;;;;;;;7.85;86.18;99843.16;107641;276;104714;-52
2023/10/15 01:18:06;;;;;;;5.50;2.10;;;;;;;7.84;86.17;99846.36;107670;276;114290;-55
2023/10/15 01:20:43;;;;;;;6.80;2.20;;;;;;;7.82;86.24;99846.52;107678;276;96929;-57
2023/10/15 01:23:31;;;;;;;5.40;2.30;;;;;;;7.82;86.15;99850.65;107758;276;97276;-56
2023/10/15 01:26:16;;;;;;;7.90;2.10;;;;;;;7.78;86.25;99847.38;107515;276;122613;-57
2023/10/15 01:28:57;;;;;;;7.10;2.10;;;;;;;7.81;86.22;99844.68;107672;276;105127;-58
2023/10/15 01:31:41;;;;;;;5.50;1.80;;;;;;;7.83;86.29;99844.45;107663;276;114902;-53
2023/10/15 01:34:21;;;;;;;6.30;1.90;;;;;;;7.82;86.31;99845.10;107693;276;95506;-53
2023/10/15 01:37:06;;;;;;;7.20;1.90;;;;;;;7.84;86.23;99844.96;107653;276;98282;-56
2023/10/15 01:39:48;;;;;;;5.60;1.90;;;;;;;7.85;86.22;99846.71;107628;276;120452;-56
2023/10/15 01:42:40;;;;;;;7.00;2.20;;;;;;;7.79;86.27;99850.11;107675;276;105773;-54
2023/10/15 01:45:31;;;;;;;3.50;1.60;;;;;;;7.75;86.14;99850.83;107588;276;115345;-53
2023/10/15 01:48:13;;;;;;;6.30;1.90;;;;;;;7.70;86.16;99849.15;107647;276;95896;-53
2023/10/15 01:50:49;;;;;;;9.20;2.30;;;;;;;7.59;86.30;99852.00;107698;276;97902;-52
2023/10/15 01:53:29;;;;;;;6.50;2.00;;;;;;;7.54;86.31;99851.05;107647;276;121174;-53
2023/10/15 01:56:16;;;;;;;6.90;2.20;;;;;;;7.53;86.55;99852.73;107707;276;105808;-58
2023/10/15 01:59:07;;;;;;;6.20;2.30;;;;;;;7.54;86.59;99856.68;107650;276;113496;-58
2023/10/15 02:01:50;;;;;;;6.40;2.10;;;;;;;7.51;86.71;99856.02;107658;276;96255;-58
2023/10/15 02:04:26;;;;;;;5.30;2.30;;;;;;;7.45;86.69;99857.61;107716;276;97163;-58
2023/10/15 02:07:03;;;;;;;6.60;2.00;;;;;;;7.44;86.69;99858.58;107675;276;121279;-56
2023/10/15 02:09:48;;;;;;;8.10;2.30;;;;;;;7.41;86.79;99860.40;107785;276;105117;-57
2023/10/15 02:12:30;;;;;;;8.30;2.20;;;;;;;7.37;86.70;99853.92;107731;276;114929;-58
2023/10/15 02:15:14;;;;;;;9.10;2.40;;;;;;;7.34;86.65;99853.95;107701;276;97323;-58
2023/10/15 02:17:53;;;;;;;8.80;2.50;;;;;;;7.31;86.77;99854.53;107760;276;98073;-57
2023/10/15 02:20:44;;;;;;;10.80;2.70;;;;;;;7.35;86.99;99858.92;107675;276;120043;-56
2023/10/15 02:23:28;;;;;;;6.90;2.10;;;;;;;7.32;86.87;99860.48;107607;276;105593;-58
2023/10/15 02:26:08;;;;;;;9.20;2.30;;;;;;;7.25;86.93;99855.21;107617;276;114456;-58
2023/10/15 02:28:53;;;;;;;9.00;2.30;;;;;;;7.24;87.12;99859.95;107623;276;97593;-58
2023/10/15 02:31:31;;;;;;;5.50;2.00;;;;;;;7.25;87.24;99863.67;107655;276;97499;-58
2023/10/15 02:34:14;;;;;;;8.40;2.30;;;;;;;7.23;87.13;99861.58;107683;276;120109;-58
2023/10/15 02:37:02;;;;;;;6.40;2.40;;;;;;;7.21;87.21;99862.55;107665;276;105873;-58
2023/10/15 02:39:44;;;;;;;11.00;3.00;;;;;;;7.19;87.16;99868.63;107626;276;113388;-58
2023/10/15 02:42:30;;;;;;;9.50;2.00;;;;;;;7.18;87.34;99871.12;107673;276;96691;-53
2023/10/15 02:45:14;;;;;;;7.60;2.30;;;;;;;7.18;87.25;99866.21;107667;276;98135;-53
2023/10/15 02:47:58;;;;;;;8.10;2.30;;;;;;;7.19;87.31;99860.81;107758;276;120379;-53
2023/10/15 02:50:59;;;;;;;6.00;1.60;;;;;;;7.17;87.43;99863.91;106837;276;105197;-54
2023/10/15 02:53:50;;;;;;;6.50;2.30;;;;;;;7.12;87.28;99859.26;107707;276;113958;-54
2023/10/15 02:56:29;;;;;;;6.80;1.90;;;;;;;7.07;87.46;99860.77;107672;276;96920;-55
2023/10/15 02:59:09;;;;;;;8.20;2.30;;;;;;;7.04;87.37;99860.89;107678;276;98442;-55
2023/10/15 03:01:56;;;;;;;6.30;1.70;;;;;;;7.06;87.58;99857.15;107630;276;120440;-54
2023/10/15 03:04:38;;;;;;;5.50;2.30;;;;;;;7.05;87.60;99855.91;107653;276;103920;-54
2023/10/15 03:07:19;;;;;;;6.80;2.40;;;;;;;7.02;87.45;99859.16;107609;276;114380;-53
2023/10/15 03:09:58;;;;;;;6.20;2.00;;;;;;;6.97;87.45;99855.67;107657;276;93803;-53
2023/10/15 03:12:43;;;;;;;5.20;2.20;;;;;;;6.93;87.43;99855.68;107694;276;98300;-58
2023/10/15 03:15:25;;;;;;;6.90;2.20;;;;;;;6.85;87.35;99860.33;107656;276;121061;-57
2023/10/15 03:18:14;;;;;;;6.70;2.20;;;;;;;6.75;87.46;99862.91;107496;276;108166;-57
2023/10/15 03:21:08;;;;;;;8.70;2.10;;;;;;;6.71;87.53;99864.76;107677;276;112290;-53
2023/10/15 03:23:49;;;;;;;8.60;2.20;;;;;;;6.61;87.46;99872.27;107604;276;96337;-52
2023/10/15 03:26:31;;;;;;;8.60;2.50;;;;;;;6.54;87.45;99876.50;107645;276;97451;-57
2023/10/15 03:29:13;;;;;;;8.00;2.20;;;;;;;6.47;87.44;99871.88;107660;276;121022;-57
2023/10/15 03:32:04;;;;;;;6.80;2.10;;;;;;;6.42;87.44;99871.59;107676;276;105553;-52
2023/10/15 03:34:47;;;;;;;7.90;2.30;;;;;;;6.38;87.62;99870.11;107690;276;114403;-53
2023/10/15 03:37:27;;;;;;;6.90;2.00;;;;;;;6.34;87.59;99873.82;107705;276;96012;-58
2023/10/15 03:40:12;;;;;;;7.70;2.20;;;;;;;6.29;87.61;99874.75;107698;276;98871;-56
2023/10/15 03:42:50;;;;;;;8.00;2.10;;;;;;;6.30;87.60;99878.90;107708;276;120393;-55
2023/10/15 03:45:29;;;;;;;9.00;2.70;;;;;;;6.32;87.87;99882.24;107694;276;106289;-53
2023/10/15 03:48:14;;;;;;;6.80;2.00;;;;;;;6.32;87.89;99882.31;107647;276;114685;-56
2023/10/15 03:50:55;;;;;;;5.80;2.20;;;;;;;6.27;87.96;99887.14;107670;276;96461;-60
2023/10/15 03:53:41;;;;;;;4.40;1.80;;;;;;;6.26;87.86;99888.30;107628;276;97172;-58
2023/10/15 03:56:27;;;;;;;5.10;1.90;;;;;;;6.26;88.06;99889.95;107666;276;121536;-56
2023/10/15 03:59:08;;;;;;;7.30;2.60;;;;;;;6.22;87.93;99888.30;107648;276;108796;-56
2023/10/15 04:01:56;;;;;;;5.90;1.90;;;;;;;6.16;87.97;99890.55;107407;270;113385;-54
2023/10/15 04:04:35;;;;;;;7.10;2.00;;;;;;;6.18;88.12;99890.82;107582;276;96753;-54
2023/10/15 04:07:19;;;;;;;5.60;1.90;;;;;;;6.22;88.27;99890.06;107600;276;97668;-53
2023/10/15 04:09:57;;;;;;;7.10;1.80;;;;;;;6.26;88.37;99881.21;107558;276;120943;-53
2023/10/15 04:12:35;;;;;;;6.00;1.80;;;;;;;6.24;88.50;99878.15;107478;276;108968;-59
2023/10/15 04:15:16;;;;;;;7.00;1.90;;;;;;;6.18;88.38;99875.47;107649;276;113534;-57
2023/10/15 04:17:52;;;;;;;4.40;1.80;;;;;;;6.22;88.57;99875.75;107721;276;97636;-54
2023/10/15 04:20:35;;;;;;;8.10;2.10;;;;;;;6.27;88.50;99874.95;107571;276;97910;-54
2023/10/15 04:23:30;;;;;;;6.40;1.80;;;;;;;6.31;88.58;99873.06;107627;276;120528;-53
2023/10/15 04:26:22;;;;;;;8.00;2.00;;;;;;;6.30;88.58;99876.82;107713;276;105021;-53
2023/10/15 04:29:16;;;;;;;10.40;3.30;;;;;;;6.27;88.57;99880.33;107686;276;115143;-54
2023/10/15 04:32:00;;;;;;;8.70;2.50;;;;;;;6.25;88.66;99886.63;107665;276;97535;-57
2023/10/15 04:34:41;;;;;;;4.70;1.80;;;;;;;6.29;88.68;99884.58;107662;276;97408;-57
2023/10/15 04:37:23;;;;;;;10.10;2.50;;;;;;;6.34;88.71;99881.86;107662;276;120379;-58
2023/10/15 04:40:04;;;;;;;8.30;2.30;;;;;;;6.33;88.68;99879.13;107630;276;105044;-58
2023/10/15 04:42:48;;;;;;;9.00;2.20;;;;;;;6.29;88.65;99876.16;107670;276;115004;-54
2023/10/15 04:45:35;;;;;;;8.30;2.30;;;;;;;6.30;88.68;99874.11;107721;276;96119;-54
2023/10/15 04:48:15;;;;;;;5.50;1.80;;;;;;;6.31;88.79;99875.78;107687;276;97971;-55
2023/10/15 04:50:55;;;;;;;4.40;1.80;;;;;;;6.30;88.87;99878.02;107717;276;119399;-55
2023/10/15 04:53:34;;;;;;;8.20;2.40;;;;;;;6.31;88.79;99879.48;107685;276;104400;-55
2023/10/15 04:56:23;;;;;;;6.90;2.10;;;;;;;6.32;88.80;99872.75;107710;276;115276;-54
2023/10/15 04:59:04;;;;;;;7.50;2.00;;;;;;;6.35;88.83;99874.99;107733;276;96599;-54
2023/10/15 05:01:48;;;;;;;11.70;1.90;;;;;;;6.32;89.01;99872.93;107739;276;98703;-52
2023/10/15 05:04:31;;;;;;;5.10;1.90;;;;;;;6.33;88.94;99866.79;107697;276;120807;-53
2023/10/15 05:07:09;;;;;;;4.90;1.70;;;;;;;6.37;89.00;99863.80;107713;276;105052;-53
2023/10/15 05:09:51;;;;;;;9.10;2.60;;;;;;;6.38;89.06;99865.08;107676;276;113561;-53
2023/10/15 05:12:28;;;;;;;7.90;2.00;;;;;;;6.41;89.25;99864.89;107656;276;96273;-54
2023/10/15 05:15:13;;;;;;;4.60;1.80;;;;;;;6.42;89.10;99866.64;107628;276;96041;-53
2023/10/15 05:17:50;;;;;;;6.70;2.10;;;;;;;6.44;89.21;99871.36;107676;276;120083;-57
2023/10/15 05:20:28;;;;;;;6.00;1.80;;;;;;;6.49;89.20;99874.02;107663;276;105875;-56
2023/10/15 05:23:06;;;;;;;7.00;1.90;;;;;;;6.50;89.22;99877.87;107642;276;113487;-53
2023/10/15 05:25:45;;;;;;;6.80;2.10;;;;;;;6.50;89.21;99876.76;107621;276;96589;-57
2023/10/15 05:28:24;;;;;;;11.50;3.20;;;;;;;6.54;89.12;99877.20;107693;276;97265;-58
2023/10/15 05:31:00;;;;;;;7.20;2.00;;;;;;;6.58;89.30;99882.48;107685;276;121376;-59
2023/10/15 05:33:42;;;;;;;6.50;2.20;;;;;;;6.60;89.23;99888.30;107686;276;103628;-57
2023/10/15 05:36:23;;;;;;;8.20;2.00;;;;;;;6.63;89.30;99895.14;107683;276;113849;-54
2023/10/15 05:39:03;;;;;;;6.60;2.10;;;;;;;6.70;89.29;99895.80;107667;276;96453;-55
2023/10/15 05:41:47;;;;;;;8.40;2.50;;;;;;;6.76;89.37;99902.24;107712;276;98080;-57
2023/10/15 05:44:29;;;;;;;8.50;2.40;;;;;;;6.81;89.31;99906.96;107706;276;120795;-52
2023/10/15 05:47:15;;;;;;;10.30;2.30;;;;;;;6.92;89.37;99915.33;107714;276;104618;-53
2023/10/15 05:49:55;;;;;;;9.60;2.70;;;;;;;7.02;89.29;99917.33;107676;276;113913;-53
2023/10/15 05:52:35;;;;;;;9.00;2.40;;;;;;;7.06;89.32;99925.30;107685;276;95061;-56
2023/10/15 05:55:17;;;;;;;6.30;2.10;;;;;;;7.16;89.31;99932.55;107697;276;98126;-56
2023/10/15 05:58:00;;;;;;;6.50;2.20;;;;;;;7.25;89.19;99933.27;107662;276;121860;-53
2023/10/15 06:00:44;;;;;;;8.40;2.80;;;;;;;7.40;89.17;99941.50;107681;276;105097;-55
2023/10/15 06:03:20;;;;;;;8.20;3.00;;;;;;;7.69;89.10;99944.25;107661;276;113458;-56
2023/10/15 06:06:02;;;;;;;7.00;2.30;;;;;;;7.94;88.61;99943.47;107633;276;95953;-55
2023/10/15 06:08:40;;;;;;;5.40;1.90;;;;;;;8.02;88.34;99947.77;107702;276;98254;-54
2023/10/15 06:11:20;;;;;;;8.80;2.70;;;;;;;8.10;88.22;99948.30;107684;276;120921;-54
2023/10/15 06:14:04;;;;;;;8.80;3.50;;;;;;;8.19;88.03;99947.40;107660;276;104928;-53
2023/10/15 06:16:52;;;;;;;6.40;2.20;;;;;;;8.20;87.96;99952.29;107697;276;114370;-57
2023/10/15 06:19:31;;;;;;;5.60;2.10;;;;;;;8.25;87.78;99961.05;107569;276;95309;-57
2023/10/15 06:22:10;;;;;;;5.90;2.40;;;;;;;8.26;87.63;99958.77;107689;276;97829;-57
2023/10/15 06:24:47;;;;;;;6.50;2.20;;;;;;;8.29;87.71;99957.42;107664;276;120587;-56
2023/10/15 06:27:26;;;;;;;6.60;2.10;;;;;;;8.33;87.60;99958.55;107681;276;104634;-52
2023/10/15 06:30:14;;;;;;;9.00;2.20;;;;;;;8.38;87.46;99961.45;107630;276;114487;-52
2023/10/15 06:32:52;;;;;;;6.60;2.20;;;;;;;8.41;87.56;99962.22;107665;276;97295;-55
2023/10/15 06:35:32;;;;;;;7.10;2.10;;;;;;;8.49;87.53;99960.22;107715;276;96969;-54
2023/10/15 06:38:08;;;;;;;8.30;2.20;;;;;;;8.55;87.56;99961.69;107640;276;120430;-51
2023/10/15 06:40:52;;;;;;;7.30;2.70;;;;;;;8.61;87.41;99962.05;107689;276;105280;-56
2023/10/15 06:43:38;;;;;;;6.60;2.20;;;;;;;8.70;87.38;99962.91;107661;276;114801;-57
2023/10/15 06:46:23;;;;;;;8.30;2.10;;;;;;;8.78;87.13;99968.39;107682;276;96354;-53
2023/10/15 06:49:03;;;;;;;6.40;2.10;;;;;;;8.88;87.07;99964.91;107681;276;97087;-53
2023/10/15 06:51:45;;;;;;;5.50;1.80;;;;;;;8.94;86.96;99964.77;107671;276;120066;-54
2023/10/15 06:54:29;;;;;;;7.70;2.20;;;;;;;8.99;86.78;99970.75;107657;276;104963;-55
2023/10/15 06:57:07;;;;;;;7.00;1.90;;;;;;;9.05;86.53;99967.85;107587;276;115596;-58
2023/10/15 06:59:50;;;;;;;6.80;2.60;;;;;;;9.14;86.45;99972.46;107732;276;96503;-57
2023/10/15 07:02:33;;;;;;;9.40;2.70;;;;;;;9.23;86.33;99974.77;107735;276;97790;-58
2023/10/15 07:05:20;;;;;;;5.60;2.00;;;;;;;9.31;85.98;99971.62;107701;276;120758;-57
2023/10/15 07:08:08;;;;;;;8.00;2.00;;;;;;;9.36;85.76;99972.95;107581;276;104391;-53
2023/10/15 07:10:45;;;;;;;8.30;2.20;;;;;;;9.45;85.48;99979.01;107688;276;114358;-55
2023/10/15 07:13:23;;;;;;;7.00;2.00;;;;;;;9.58;85.47;99976.65;107654;276;96704;-55
2023/10/15 07:16:00;;;;;;;7.70;2.10;;;;;;;9.82;85.78;99978.03;107658;276;97799;-56
2023/10/15 07:18:45;;;;;;;9.60;2.10;;;;;;;10.46;85.97;99980.89;107608;276;120083;-56
2023/10/15 07:21:27;;;;;;;8.10;2.60;;;;;;;10.70;84.39;99977.79;107653;276;106108;-54
2023/10/15 07:24:11;;;;;;;6.50;1.80;;;;;;;10.76;83.65;99980.80;107688;276;114274;-54
2023/10/15 07:26:52;;;;;;;8.90;2.10;;;;;;;10.76;83.08;99982.05;107662;276;94409;-56
2023/10/15 07:29:29;;;;;;;7.00;2.10;;;;;;;10.67;82.57;99985.16;107691;276;97056;-56
2023/10/15 07:32:07;;;;;;;9.80;2.10;;;;;;;10.86;82.08;99981.36;107718;276;120797;-53
2023/10/15 07:34:48;;;;;;;4.50;1.80;;;;;;;11.09;82.06;99985.64;107738;276;105287;-53
2023/10/15 07:37:26;;;;;;;6.30;1.70;;;;;;;11.04;81.19;99984.79;107689;276;114282;-55
2023/10/15 07:40:05;;;;;;;7.90;2.20;;;;;;;10.88;81.19;99995.12;107536;276;95087;-56
2023/10/15 07:42:54;;;;;;;7.10;2.00;;;;;;;10.79;80.54;99991.09;107739;276;96881;-57
2023/10/15 07:45:37;;;;;;;8.10;2.10;;;;;;;10.82;79.90;99995.25;107720;276;120281;-57
2023/10/15 07:48:19;;;;;;;7.40;2.40;;;;;;;10.70;78.70;99993.45;107730;276;105938;-54
2023/10/15 07:51:05;;;;;;;7.20;2.40;;;;;;;10.50;78.98;99999.33;107661;276;113982;-55
2023/10/15 07:53:50;;;;;;;6.20;1.90;;;;;;;10.48;78.31;99995.73;107724;276;94898;-55
2023/10/15 07:56:34;;;;;;;7.70;1.90;;;;;;;10.36;78.31;100009.91;107710;276;95656;-54
2023/10/15 07:59:14;;;;;;;8.80;2.10;;;;;;;10.29;78.45;100009.64;107691;276;120438;-54
2023/10/15 08:01:53;;;;;;;6.80;2.10;;;;;;;10.16;77.83;100001.83;107674;276;103734;-54
2023/10/15 08:04:38;;;;;;;8.60;2.60;;;;;;;10.01;77.36;100002.05;107620;276;116057;-54
2023/10/15 08:07:22;;;;;;;8.20;1.90;;;;;;;9.98;77.51;100007.63;107664;276;92441;-57
2023/10/15 08:10:00;;;;;;;;;;;;;;;9.98;77.60;100003.40;107654;276;97709;-58
2023/10/15 08:12:41;;;;;;;7.10;2.10;;;;;;;10.18;78.12;100002.25;107684;276;118168;-57
2023/10/15 08:15:21;;;;;;;7.30;2.20;;;;;;;10.52;78.43;99997.71;107634;276;106251;-56
2023/10/15 08:17:58;;;;;;;5.20;1.60;;;;;;;10.84;78.37;99999.13;107717;276;114142;-55
2023/10/15 08:20:38;;;;;;;6.90;2.40;;;;;;;11.06;77.31;99994.95;107706;276;97144;-56
2023/10/15 08:23:17;;;;;;;5.40;2.30;;;;;;;11.06;77.33;99992.78;107675;276;98457;-53
2023/10/15 08:25:56;;;;;;;5.00;2.30;;;;;;;11.18;76.66;99993.96;107732;276;120512;-53
2023/10/15 08:28:33;;;;;;;7.10;2.20;;;;;;;11.21;76.51;99989.05;107720;276;105438;-53
2023/10/15 08:31:11;;;;;;;8.30;3.00;;;;;;;11.21;76.36;99995.09;107756;276;114120;-56
2023/10/15 08:33:55;;;;;;;4.60;1.70;;;;;;;11.22;76.04;99994.88;107670;276;94226;-55
2023/10/15 08:36:42;;;;;;;6.40;1.90;;;;;;;11.22;75.49;99992.26;107686;276;96754;-55
2023/10/15 08:39:27;;;;;;;6.20;1.60;;;;;;;11.35;75.52;99991.05;107711;276;119906;-55
2023/10/15 08:42:08;;;;;;;4.80;1.80;;;;;;;11.44;74.69;99995.02;107703;276;105116;-54
2023/10/15 08:44:49;;;;;;;5.50;1.80;;;;;;;11.53;74.52;99988.59;107666;276;112885;-53
2023/10/15 08:47:29;;;;;;;6.50;1.80;;;;;;;11.55;73.35;99985.09;107643;276;92859;-59
2023/10/15 08:50:06;;;;;;;6.10;2.10;;;;;;;11.85;73.33;99978.21;107694;276;97312;-59
2023/10/15 08:52:45;;;;;;;6.10;2.00;;;;;;;12.00;73.29;99982.25;107691;274;119843;-58
2023/10/15 08:55:32;;;;;;;5.80;1.40;;;;;;;12.04;73.22;99980.75;107567;276;104048;-58
2023/10/15 08:58:14;;;;;;;4.70;1.50;;;;;;;12.00;72.86;99984.88;107631;276;113429;-60
2023/10/15 09:00:58;;;;;;;4.60;2.00;;;;;;;11.82;71.99;99985.54;107643;276;94351;-59
2023/10/15 09:03:39;;;;;;;4.60;1.90;;;;;;;11.65;72.05;99991.06;107718;276;97558;-58
2023/10/15 09:06:18;;;;;;;4.80;1.70;;;;;;;11.62;72.17;99992.30;107734;276;120023;-54
2023/10/15 09:09:09;;;;;;;5.30;1.40;;;;;;;11.56;72.00;99999.29;107714;276;104586;-53
2023/10/15 09:11:58;;;;;;;6.60;1.90;;;;;;;11.77;72.27;100000.56;107684;276;113653;-57
2023/10/15 09:14:55;;;;;;;6.70;1.70;;;;;;;11.87;72.29;100001.15;107504;276;92210;-55
2023/10/15 09:17:31;;;;;;;4.60;1.40;;;;;;;11.82;71.69;100002.86;107755;276;97001;-59
2023/10/15 09:20:12;;;;;;;4.90;1.90;;;;;;;11.65;71.84;100004.42;107529;276;119446;-57
2023/10/15 09:22:55;;;;;;;5.70;1.60;;;;;;;11.59;71.15;100001.37;107656;276;105077;-60
2023/10/15 09:25:41;;;;;;;8.80;1.50;;;;;;;11.49;71.19;100008.89;107512;276;113619;-59
2023/10/15 09:28:27;;;;;;;3.80;2.40;;;;;;;11.47;71.13;100006.67;107657;276;94877;-59
2023/10/15 09:31:14;;;;;;;3.70;1.50;;;;;;;11.48;71.08;100001.27;107562;276;97074;-54
2023/10/15 09:33:58;;;;;;;;;;;;;;;11.33;71.04;100004.94;107690;276;120674;-53
2023/10/15 09:36:40;;;;;;;5.50;1.80;;;;;;;11.25;71.07;100007.19;107664;276;105776;-55
2023/10/15 09:39:20;;;;;;;4.20;1.50;;;;;;;11.21;70.74;100005.39;107687;276;113577;-55
2023/10/15 09:42:02;;;;;;;5.40;1.70;;;;;;;11.13;70.85;100013.27;107552;276;95142;-57
2023/10/15 09:44:43;;;;;;;5.20;1.90;;;;;;;11.02;70.54;100014.36;107689;276;98510;-57
2023/10/15 09:47:21;;;;;;;4.60;1.60;;;;;;;11.06;70.58;100016.95;107491;273;119589;-57
2023/10/15 09:50:01;;;;;;;6.90;1.80;;;;;;;11.03;70.77;100014.90;107542;276;108091;-57
2023/10/15 09:52:54;;;;;;;4.10;1.80;;;;;;;10.99;70.63;100012.59;107612;276;113167;-58
2023/10/15 09:55:51;;;;;;;4.40;1.80;;;;;;;10.97;70.67;100009.70;107710;276;94278;-58
2023/10/15 09:58:30;;;;;;;4.70;1.70;;;;;;;11.01;70.88;100005.33;107676;276;96967;-56
2023/10/15 10:01:25;;;;;;;5.80;1.60;;;;;;;10.97;70.61;100000.40;107716;276;120010;-57
2023/10/15 10:04:45;;;;;;;4.70;1.60;;;;;;;11.13;70.84;100001.17;107664;276;105905;-57
2023/10/15 10:08:00;;;;;;;6.80;1.60;;;;;;;11.32;71.00;99998.30;107653;276;114404;-57
2023/10/15 10:11:26;;;;;;;6.80;1.70;;;;;;;11.42;70.61;99997.52;107650;276;94684;-56
2023/10/15 10:14:29;;;;;;;6.30;1.70;;;;;;;11.45;70.30;99994.89;107501;276;95606;-55
2023/10/15 10:17:11;;;;;;;8.90;2.60;;;;;;;11.53;70.34;99989.71;107649;276;120723;-59
2023/10/15 10:20:10;;;;;;;3.40;1.30;;;;;;;11.61;70.51;99990.24;107658;276;104673;-60
2023/10/15 10:22:59;;;;;;;7.30;2.40;;;;;;;11.68;70.33;99989.41;107673;276;114331;-55
2023/10/15 10:25:46;;;;;;;7.30;2.20;;;;;;;11.65;69.99;99989.20;107648;276;94578;-58
2023/10/15 10:28:25;;;;;;;4.60;1.70;;;;;;;11.55;69.61;99987.39;107692;276;97853;-62
2023/10/15 10:31:07;;;;;;;6.20;1.90;;;;;;;11.47;69.82;99990.90;107671;276;118870;-55
2023/10/15 10:33:56;;;;;;;6.00;1.90;;;;;;;11.41;70.05;99996.77;107677;276;103829;-56
2023/10/15 10:36:39;;;;;;;4.10;1.90;;;;;;;11.38;69.92;99999.45;107703;276;114806;-55
2023/10/15 10:39:22;;;;;;;4.20;1.60;;;;;;;11.44;70.00;99997.23;107717;276;93646;-55
2023/10/15 10:42:03;;;;;;;5.40;2.10;;;;;;;11.61;70.15;99994.27;107744;276;98005;-57
2023/10/15 10:44:46;;;;;;;7.10;1.90;;;;;;;11.77;70.18;99991.29;107704;276;120867;-58
2023/10/15 10:47:33;;;;;;;3.50;1.70;;;;;;;11.84;69.91;99990.48;107731;276;104226;-55
2023/10/15 10:50:23;;;;;;;9.00;2.40;;;;;;;11.80;69.56;99986.78;106938;276;763576;-55
2023/10/15 10:53:28;;;;;;;4.50;1.60;;;;;;;11.66;69.31;99980.73;107652;276;93524;-61
2023/10/15 10:56:09;;;;;;;4.40;2.10;;;;;;;11.57;69.30;99982.94;107706;276;97865;-54
2023/10/15 10:58:58;;;;;;;8.00;2.00;;;;;;;11.48;69.22;99988.54;107669;276;120135;-55
2023/10/15 11:01:38;;;;;;;7.00;2.00;;;;;;;11.35;69.04;99990.73;107672;276;104425;-57
2023/10/15 11:04:16;;;;;;;7.10;2.10;;;;;;;11.22;68.94;99990.59;107701;276;114150;-57
2023/10/15 11:06:58;;;;;;;5.50;2.00;;;;;;;11.08;69.00;99987.39;107718;276;94568;-56
2023/10/15 11:09:38;;;;;;;7.70;2.20;;;;;;;11.02;69.16;99992.43;107497;276;97474;-54
2023/10/15 11:12:21;;;;;;;5.70;2.60;;;;;;;11.07;69.63;99991.95;107703;276;119751;-60
2023/10/15 11:14:59;;;;;;;3.50;1.60;;;;;;;11.08;69.22;99991.38;107688;276;105702;-59
2023/10/15 11:17:55;;;;;;;5.40;2.20;;;;;;;11.10;69.43;99992.02;107594;276;116679;-60
2023/10/15 11:20:41;;;;;;;5.80;1.70;;;;;;;11.14;69.38;99992.95;107718;276;94672;-59
2023/10/15 11:23:23;;;;;;;8.00;2.00;;;;;;;11.10;69.14;99986.56;107729;276;96657;-54
2023/10/15 11:26:00;;;;;;;4.40;2.80;;;;;;;11.19;69.22;99982.48;107760;276;119766;-57
2023/10/15 11:28:38;;;;;;;8.00;3.30;;;;;;;11.34;69.08;99980.60;107677;276;104510;-58
2023/10/15 11:31:17;;;;;;;6.90;1.70;;;;;;;11.41;68.92;99976.08;107669;272;114597;-60
2023/10/15 11:34:03;;;;;;;4.80;2.00;;;;;;;11.42;68.56;99976.54;107696;276;94187;-60
2023/10/15 11:36:49;;;;;;;4.70;1.80;;;;;;;11.38;68.61;99975.45;107767;276;97393;-57
2023/10/15 11:39:29;;;;;;;6.00;1.60;;;;;;;11.36;68.36;99969.88;107692;276;120420;-57
2023/10/15 11:42:12;;;;;;;6.30;1.80;;;;;;;11.17;68.17;99977.44;107685;276;104340;-58
2023/10/15 11:44:56;;;;;;;5.70;2.60;;;;;;;11.12;68.38;99977.83;107655;276;114042;-56
2023/10/15 11:47:41;;;;;;;4.90;2.20;;;;;;;11.24;68.41;99973.95;107863;276;92080;-60
2023/10/15 11:50:19;;;;;;;6.00;1.70;;;;;;;11.38;68.44;99975.27;107757;276;97480;-60
2023/10/15 11:52:58;;;;;;;3.90;1.40;;;;;;;11.49;68.55;99974.77;107655;276;119784;-55
2023/10/15 11:55:37;;;;;;;13.00;3.30;;;;;;;11.56;68.47;99974.20;107624;276;105889;-56
2023/10/15 11:58:13;;;;;;;4.00;1.60;;;;;;;11.51;68.14;99966.04;108389;276;113535;-62
2023/10/15 12:00:51;;;;;;;4.70;1.90;;;;;;;11.60;68.44;99966.55;107999;270;94161;-55
2023/10/15 12:03:31;;;;;;;4.80;1.70;;;;;;;11.58;67.90;99963.21;107732;276;97304;-55
2023/10/15 12:06:18;;;;;;;4.90;1.90;;;;;;;11.67;67.70;99965.14;107740;276;121419;-58
2023/10/15 12:08:58;;;;;;;6.60;1.80;;;;;;;11.64;67.42;99967.34;107738;276;104962;-58
2023/10/15 12:11:37;;;;;;;8.10;2.50;;;;;;;11.66;67.24;99968.96;107711;276;113957;-58
2023/10/15 12:14:17;;;;;;;3.60;1.80;;;;;;;11.70;67.11;99974.52;107682;276;93875;-58
2023/10/15 12:16:56;;;;;;;6.30;1.90;;;;;;;11.72;66.94;99980.24;107751;276;96919;-60
2023/10/15 12:19:37;;;;;;;4.50;1.80;;;;;;;11.69;67.10;99980.01;107687;276;120575;-58
2023/10/15 12:22:15;;;;;;;5.30;1.70;;;;;;;11.60;66.90;99974.66;107694;276;104942;-58
2023/10/15 12:28:29;;;;;;;5.10;1.90;;;;;;;11.39;66.84;99987.48;107677;276;92792;-55
2023/10/15 12:31:08;;;;;;;7.10;2.30;;;;;;;11.30;66.69;99994.95;107415;278;98286;-58
2023/10/15 12:33:46;;;;;;;5.40;1.80;;;;;;;11.22;66.91;99994.13;107486;278;121354;-59
2023/10/15 12:36:21;;;;;;;6.80;1.90;;;;;;;11.18;67.16;99995.50;107515;278;103188;-54
2023/10/15 12:38:59;;;;;;;8.20;2.60;;;;;;;11.14;67.23;99997.80;107464;278;113975;-62
2023/10/15 12:41:45;;;;;;;9.10;3.10;;;;;;;11.09;66.99;99999.49;107459;278;94082;-53
2023/10/15 12:44:27;;;;;;;7.20;2.30;;;;;;;11.03;67.34;99996.92;107499;278;98239;-60
2023/10/15 12:47:08;;;;;;;6.40;1.70;;;;;;;11.04;67.32;99993.56;107504;278;119470;-53
2023/10/15 12:49:50;;;;;;;4.60;2.20;;;;;;;11.01;67.44;99990.69;107537;278;105406;-54
2023/10/15 12:52:31;;;;;;;6.60;2.70;;;;;;;11.02;67.70;99987.90;107501;278;114753;-54